Time;durP1;ratioP1;P1;durP2;ratioP2;P2;SDS_P1;SDS_P2;PMS_P1;PMS_P2;Temp;Humidity;BMP_temperature;BMP_pressure;BME280_temperature;BME280_humidity;BME280_pressure;Samples;Min_cycle;Max_cycle;Signal;HPM_P1;HPM_P2
2022/09/19 00:01:59;;;;;;;7.55;4.70;;;9.90;99.90;;;9.88;100.00;97080.13;5064807;27;115009;-72
2022/09/19 00:04:32;;;;;;;6.07;3.85;;;9.80;99.90;;;9.86;100.00;97080.47;5062023;27;129960;-66
2022/09/19 00:07:01;;;;;;;8.07;4.10;;;9.90;99.90;;;9.86;100.00;97076.97;5061382;27;129730;-70
2022/09/19 00:09:32;;;;;;;7.07;4.10;;;9.90;99.90;;;9.87;100.00;97078.56;5060880;27;118938;-72
2022/09/19 00:12:02;;;;;;;7.70;4.30;;;9.90;99.90;;;9.85;100.00;97070.00;5062478;27;115846;-70
2022/09/19 00:14:34;;;;;;;5.55;3.65;;;9.90;99.90;;;9.83;100.00;97072.28;5066836;27;129837;-69
2022/09/19 00:17:06;;;;;;;6.55;3.60;;;9.90;99.90;;;9.85;100.00;97065.38;5081966;27;129483;-71
2022/09/19 00:19:38;;;;;;;6.97;3.92;;;9.90;99.90;;;9.81;100.00;97080.00;5082358;27;118951;-69
2022/09/19 00:22:09;;;;;;;6.30;3.80;;;9.90;99.90;;;9.84;100.00;97073.84;5082215;27;115675;-68
2022/09/19 00:24:46;;;;;;;5.22;3.63;;;9.90;99.90;;;9.76;100.00;97080.34;5080999;27;129772;-66
2022/09/19 00:27:20;;;;;;;5.05;3.25;;;9.90;99.90;;;9.74;100.00;97075.28;5082208;27;130081;-70
2022/09/19 00:29:49;;;;;;;4.85;2.78;;;9.90;99.90;;;9.70;100.00;97067.06;5063559;27;118846;-71
2022/09/19 00:32:18;;;;;;;4.78;3.25;;;9.90;99.90;;;9.67;100.00;97070.53;5068127;27;114652;-65
2022/09/19 00:34:52;;;;;;;4.72;3.00;;;9.90;99.90;;;9.69;100.00;97062.81;5063687;27;129873;-68
2022/09/19 00:37:22;;;;;;;4.18;2.85;;;10.00;99.90;;;9.68;100.00;97066.66;5066540;27;129053;-69
2022/09/19 00:39:52;;;;;;;5.05;2.92;;;9.90;99.90;;;9.78;100.00;97075.31;5081887;27;118424;-70
2022/09/19 00:42:22;;;;;;;4.60;3.00;;;9.90;99.90;;;9.72;100.00;97069.44;5082733;27;115712;-71
2022/09/19 00:44:59;;;;;;;5.30;2.70;;;9.90;99.90;;;9.82;100.00;97074.22;5084162;27;129935;-67
2022/09/19 00:47:36;;;;;;;4.93;3.10;;;10.00;99.90;;;9.85;100.00;97072.72;5063044;27;129527;-68
2022/09/19 00:50:15;;;;;;;4.60;2.85;;;10.00;99.90;;;9.88;100.00;97072.00;5082005;27;118962;-72
2022/09/19 00:52:49;;;;;;;4.15;2.53;;;10.00;99.90;;;9.84;100.00;97068.44;5084416;27;114334;-71
2022/09/19 00:55:18;;;;;;;5.38;3.08;;;10.00;99.90;;;9.88;100.00;97080.88;5080779;27;129832;-71
2022/09/19 00:58:12;;;;;;;7.40;3.03;;;10.00;99.90;;;9.91;100.00;97082.09;5080018;27;129823;-69
2022/09/19 01:00:41;;;;;;;4.20;2.83;;;10.00;99.90;;;10.00;100.00;97085.31;5063369;27;119779;-71
2022/09/19 01:03:10;;;;;;;5.85;2.88;;;10.00;99.90;;;9.98;100.00;97081.41;5063640;27;116346;-70
2022/09/19 01:05:50;;;;;;;4.88;2.60;;;10.00;99.90;;;9.96;100.00;97081.78;5082086;27;130045;-68
2022/09/19 01:08:46;;;;;;;4.35;2.80;;;10.00;99.90;;;9.96;100.00;97084.47;5048756;27;129925;-69
2022/09/19 01:11:43;;;;;;;3.60;2.35;;;10.00;99.90;;;9.95;100.00;97082.91;5041447;27;120173;-70
2022/09/19 01:14:25;;;;;;;4.05;2.67;;;10.10;99.90;;;9.91;100.00;97090.22;5025991;27;114682;-66
2022/09/19 01:17:04;;;;;;;6.95;2.80;;;10.10;99.90;;;9.89;100.00;97092.50;5025774;27;129749;-68
2022/09/19 01:20:11;;;;;;;6.10;2.85;;;10.10;99.90;;;9.87;100.00;97084.75;5008709;27;129656;-71
2022/09/19 01:22:55;;;;;;;5.13;3.10;;;10.00;99.90;;;9.93;100.00;97089.88;5025753;27;118602;-70
2022/09/19 01:25:32;;;;;;;5.88;3.10;;;10.00;99.90;;;9.83;100.00;97093.97;5022546;27;114860;-67
2022/09/19 01:28:11;;;;;;;6.57;3.22;;;10.00;99.90;;;9.82;100.00;97095.13;5025061;27;130667;-70
2022/09/19 01:31:16;;;;;;;5.67;3.10;;;10.00;99.90;;;9.86;100.00;97093.22;5022630;27;129455;-71
2022/09/19 01:33:53;;;;;;;6.60;3.13;;;10.00;99.90;;;9.93;100.00;97093.34;5044740;27;117509;-71
2022/09/19 01:36:26;;;;;;;5.35;3.00;;;10.00;99.90;;;9.91;100.00;97084.81;5044539;27;115548;-70
2022/09/19 01:38:57;;;;;;;4.70;3.13;;;10.00;99.90;;;9.96;100.00;97094.56;5025281;27;129946;-76
2022/09/19 01:41:31;;;;;;;5.25;3.42;;;9.90;99.90;;;9.89;100.00;97087.09;5026059;27;130217;-72
2022/09/19 01:44:05;;;;;;;6.03;3.63;;;10.00;99.90;;;9.92;100.00;97091.78;5029801;27;118288;-70
2022/09/19 01:46:47;;;;;;;5.55;3.25;;;10.00;99.90;;;9.94;100.00;97086.78;5025703;27;114803;-70
2022/09/19 01:49:31;;;;;;;7.43;3.53;;;9.90;99.90;;;9.95;100.00;97084.84;5043471;27;131143;-72
2022/09/19 01:52:12;;;;;;;6.95;3.50;;;9.90;99.90;;;9.86;100.00;97093.22;5046066;27;128897;-72
2022/09/19 01:54:54;;;;;;;5.25;3.67;;;9.90;99.90;;;9.91;100.00;97095.66;5026122;27;119305;-70
2022/09/19 01:57:35;;;;;;;5.85;3.75;;;9.90;99.90;;;9.86;100.00;97087.81;5024831;27;115906;-72
2022/09/19 02:00:14;;;;;;;6.53;3.80;;;9.90;99.90;;;9.83;100.00;97096.66;5025850;27;129940;-67
2022/09/19 02:03:07;;;;;;;5.57;3.90;;;9.90;99.90;;;9.82;100.00;97081.59;5028957;27;128978;-69
2022/09/19 02:05:51;;;;;;;6.68;3.95;;;9.90;99.90;;;9.77;100.00;97088.09;5026065;27;118742;-70
2022/09/19 02:08:28;;;;;;;6.15;4.03;;;9.90;99.90;;;9.82;100.00;97084.28;5028107;27;114760;-69
2022/09/19 02:11:03;;;;;;;6.32;3.85;;;9.90;99.90;;;9.82;100.00;97081.59;5025509;27;130392;-72
2022/09/19 02:13:36;;;;;;;6.88;4.15;;;9.90;99.90;;;9.76;100.00;97088.44;5029430;27;129183;-74
2022/09/19 02:16:18;;;;;;;6.28;3.80;;;9.90;99.90;;;9.77;100.00;97079.97;5012588;27;118693;-73
2022/09/19 02:18:54;;;;;;;5.85;3.60;;;9.90;99.90;;;9.72;100.00;97077.56;5027946;27;114675;-68
2022/09/19 02:21:36;;;;;;;6.22;3.95;;;10.00;99.90;;;9.70;100.00;97090.69;5025722;27;130365;-76
2022/09/19 02:24:15;;;;;;;6.38;4.05;;;10.00;99.90;;;9.76;100.00;97091.16;5043540;27;130242;-67
2022/09/19 02:26:51;;;;;;;7.40;4.18;;;9.90;99.90;;;9.74;100.00;97075.28;5043973;27;119646;-71
2022/09/19 02:29:28;;;;;;;5.20;3.63;;;9.90;99.90;;;9.72;100.00;97080.25;5041349;27;114971;-71
2022/09/19 02:31:59;;;;;;;5.03;3.22;;;9.90;99.90;;;9.75;100.00;97092.31;5028224;27;130537;-67
2022/09/19 02:34:32;;;;;;;5.95;3.78;;;9.90;99.90;;;9.74;100.00;97080.69;5028025;27;129241;-70
2022/09/19 02:37:07;;;;;;;5.63;3.58;;;10.00;99.90;;;9.74;100.00;97079.91;5011918;27;117724;-71
2022/09/19 02:39:44;;;;;;;5.70;3.70;;;10.00;99.90;;;9.78;100.00;97091.56;5025297;27;115086;-68
2022/09/19 02:42:30;;;;;;;7.45;4.00;;;10.00;99.90;;;9.79;100.00;97090.44;5041470;27;130526;-73
2022/09/19 02:45:11;;;;;;;6.40;3.70;;;10.00;99.90;;;9.81;100.00;97090.84;5027957;27;130015;-71
2022/09/19 02:47:55;;;;;;;5.60;3.47;;;10.00;99.90;;;9.73;100.00;97083.75;5011772;27;118236;-68
2022/09/19 02:50:32;;;;;;;6.53;3.47;;;10.00;99.90;;;9.77;100.00;97092.72;5011723;27;114746;-71
2022/09/19 02:53:06;;;;;;;5.95;3.55;;;10.00;99.90;;;9.70;100.00;97101.50;5042893;27;129860;-68
2022/09/19 02:55:45;;;;;;;5.80;3.95;;;10.00;99.90;;;9.82;100.00;97097.84;5028364;27;129182;-69
2022/09/19 02:58:17;;;;;;;5.13;3.78;;;10.00;99.90;;;9.74;100.00;97101.56;5024596;27;118862;-68
2022/09/19 03:00:52;;;;;;;5.18;3.78;;;10.00;99.90;;;9.75;100.00;97100.44;5039135;27;116239;-66
2022/09/19 03:06:30;;;;;;;5.40;3.78;;;10.00;99.90;;;9.66;100.00;97103.38;5020428;27;129128;-71
2022/09/19 03:09:02;;;;;;;5.72;3.28;;;10.00;99.90;;;9.63;100.00;97102.19;5038600;27;118751;-72
2022/09/19 03:11:33;;;;;;;11.60;3.75;;;10.00;99.90;;;9.66;100.00;97095.25;5042248;27;115079;-72
2022/09/19 03:14:02;;;;;;;5.15;3.30;;;10.00;99.90;;;9.69;100.00;97103.44;5044057;27;130153;-71
2022/09/19 03:16:35;;;;;;;5.07;3.60;;;10.00;99.90;;;9.70;100.00;97102.28;5028045;27;128358;-74
2022/09/19 03:19:07;;;;;;;5.30;3.40;;;10.00;99.90;;;9.74;100.00;97098.84;5051536;27;118541;-70
2022/09/19 03:21:38;;;;;;;5.90;3.70;;;10.00;99.90;;;9.77;100.00;97104.34;5058990;27;115115;-67
2022/09/19 03:24:08;;;;;;;7.28;3.63;;;10.00;99.90;;;9.71;100.00;97093.03;5041400;27;129711;-72
2022/09/19 03:26:38;;;;;;;5.30;3.55;;;10.00;99.90;;;9.73;100.00;97105.44;5038322;27;129912;-70
2022/09/19 03:29:11;;;;;;;5.15;3.40;;;10.10;99.90;;;9.67;100.00;97113.84;5027992;27;117604;-74
2022/09/19 03:31:52;;;;;;;4.90;3.55;;;10.10;99.90;;;9.68;100.00;97110.00;5041601;27;115050;-73
2022/09/19 03:34:23;;;;;;;6.28;3.47;;;10.10;99.90;;;9.68;100.00;97103.81;5043444;27;130076;-71
2022/09/19 03:36:53;;;;;;;5.93;4.10;;;10.10;99.90;;;9.70;100.00;97102.28;5040517;27;129620;-68
2022/09/19 03:39:26;;;;;;;5.63;3.83;;;10.10;99.90;;;9.82;100.00;97103.25;5044532;27;118483;-71
2022/09/19 03:41:55;;;;;;;6.47;4.15;;;10.10;99.90;;;9.82;100.00;97112.16;5041464;27;115694;-69
2022/09/19 03:44:23;;;;;;;5.68;3.85;;;10.10;99.90;;;9.79;100.00;97117.53;5045101;27;129543;-72
2022/09/19 03:46:52;;;;;;;6.60;4.38;;;10.00;99.90;;;9.82;100.00;97116.78;5056686;27;130105;-71
2022/09/19 03:49:23;;;;;;;6.97;4.30;;;10.00;99.90;;;9.78;100.00;97110.53;5041200;27;118575;-68
2022/09/19 03:51:53;;;;;;;5.68;4.05;;;10.10;99.90;;;9.82;100.00;97114.09;5041002;27;115071;-71
2022/09/19 03:54:22;;;;;;;7.82;4.10;;;10.10;99.90;;;9.88;100.00;97113.41;5040940;27;130373;-69
2022/09/19 03:56:52;;;;;;;7.60;4.25;;;10.00;99.90;;;9.87;100.00;97111.06;5025581;27;130939;-66
2022/09/19 03:59:20;;;;;;;5.72;4.05;;;10.10;99.90;;;9.86;100.00;97109.47;5027553;27;118731;-69
2022/09/19 04:01:49;;;;;;;7.93;4.10;;;10.10;99.90;;;9.86;100.00;97123.03;5055675;27;115673;-67
2022/09/19 04:04:18;;;;;;;5.75;4.15;;;10.10;99.90;;;9.85;100.00;97121.47;5063745;27;129739;-68
2022/09/19 04:06:53;;;;;;;5.97;3.78;;;10.10;99.90;;;9.85;100.00;97129.59;5048489;27;129457;-69
2022/09/19 04:09:22;;;;;;;5.90;4.03;;;10.10;99.90;;;9.81;100.00;97128.75;5047609;27;117664;-69
2022/09/19 04:11:55;;;;;;;8.43;4.15;;;10.00;99.90;;;9.83;100.00;97123.75;5056246;27;115702;-71
2022/09/19 04:14:24;;;;;;;6.28;3.58;;;10.10;99.90;;;9.87;100.00;97121.91;5049767;27;130186;-69
2022/09/19 04:16:52;;;;;;;11.77;4.25;;;10.10;99.90;;;9.94;100.00;97119.28;5039869;27;129655;-70
2022/09/19 04:19:25;;;;;;;5.50;3.47;;;10.10;99.90;;;9.95;100.00;97133.63;5042562;27;119415;-69
2022/09/19 04:22:37;;;;;;;5.53;2.95;;;10.10;99.90;;;9.94;100.00;97127.44;5008659;27;119009;-70
2022/09/19 04:25:32;;;;;;;5.07;2.83;;;10.10;99.90;;;9.98;100.00;97146.44;5031789;27;129921;-74
2022/09/19 04:28:21;;;;;;;4.43;2.45;;;10.20;99.90;;;9.94;100.00;97138.25;5042475;27;129149;-68
2022/09/19 04:30:51;;;;;;;5.63;2.90;;;10.10;99.90;;;9.92;100.00;97140.53;5021091;27;122504;-73
2022/09/19 04:33:22;;;;;;;6.80;3.20;;;10.10;99.90;;;9.91;100.00;97149.81;5038993;27;122106;-71
2022/09/19 04:35:52;;;;;;;4.53;2.92;;;10.00;99.90;;;9.89;100.00;97139.34;5041920;27;131282;-72
2022/09/19 04:38:23;;;;;;;5.88;3.30;;;10.00;99.90;;;9.91;100.00;97141.69;5021923;27;129927;-72
2022/09/19 04:40:56;;;;;;;6.32;3.70;;;9.90;99.90;;;9.90;100.00;97143.59;5021464;27;119598;-72
2022/09/19 04:43:28;;;;;;;5.97;3.40;;;10.00;99.90;;;9.87;100.00;97140.84;5042645;27;118573;-73
2022/09/19 04:46:21;;;;;;;7.25;3.53;;;10.00;99.90;;;9.98;100.00;97135.59;5042346;27;129992;-73
2022/09/19 04:48:52;;;;;;;4.63;2.97;;;10.00;99.90;;;9.94;100.00;97149.09;5062659;27;129598;-68
2022/09/19 04:51:27;;;;;;;4.95;3.08;;;10.00;99.90;;;9.96;100.00;97144.09;5028966;27;119798;-72
2022/09/19 04:53:57;;;;;;;5.72;3.20;;;10.00;99.90;;;10.01;100.00;97146.47;5044773;27;119397;-73
2022/09/19 04:56:26;;;;;;;5.10;3.13;;;10.00;99.90;;;10.05;100.00;97150.03;5039573;27;130274;-74
2022/09/19 04:58:55;;;;;;;5.30;3.05;;;10.10;99.90;;;10.06;100.00;97162.41;5034036;27;129220;-71
2022/09/19 05:01:24;;;;;;;4.93;3.08;;;10.10;99.90;;;10.01;100.00;97170.09;5026676;27;119563;-69
2022/09/19 05:03:53;;;;;;;5.65;3.42;;;10.20;99.90;;;10.15;100.00;97169.53;5041964;27;118577;-67
2022/09/19 05:06:21;;;;;;;6.10;3.28;;;10.20;99.90;;;10.12;100.00;97170.25;5041569;27;130429;-72
2022/09/19 05:08:51;;;;;;;5.47;3.05;;;10.20;99.90;;;10.11;100.00;97171.38;5023847;27;129443;-72
2022/09/19 05:11:50;;;;;;;5.78;3.10;;;10.20;99.90;;;10.11;100.00;97176.81;5037689;27;119319;-69
2022/09/19 05:14:21;;;;;;;8.68;3.15;;;10.30;99.90;;;10.09;100.00;97174.47;5042257;27;118921;-68
2022/09/19 05:16:55;;;;;;;5.32;3.47;;;10.20;99.90;;;10.13;100.00;97178.03;5038202;27;130388;-70
2022/09/19 05:19:25;;;;;;;5.32;3.72;;;10.20;99.90;;;10.11;100.00;97182.22;5041451;27;129636;-71
2022/09/19 05:21:55;;;;;;;5.88;3.63;;;10.20;99.90;;;10.12;100.00;97181.09;5037115;27;122328;-71
2022/09/19 05:24:25;;;;;;;6.05;3.33;;;10.20;99.90;;;10.06;100.00;97178.69;5039615;27;122056;-72
2022/09/19 05:26:58;;;;;;;8.43;3.80;;;10.20;99.90;;;10.20;100.00;97188.16;5024424;27;129518;-72
2022/09/19 05:29:28;;;;;;;6.55;3.78;;;10.20;99.90;;;10.29;100.00;97196.81;5039007;27;131333;-69
2022/09/19 05:32:04;;;;;;;6.35;3.80;;;10.20;99.90;;;10.34;100.00;97193.81;5038556;27;119401;-75
2022/09/19 05:35:00;;;;;;;5.65;3.50;;;10.30;99.90;;;10.25;100.00;97199.50;5042576;27;118934;-70
2022/09/19 05:37:49;;;;;;;6.22;3.20;;;10.40;99.90;;;10.39;100.00;97212.50;5038244;27;130418;-75
2022/09/19 05:40:34;;;;;;;7.45;3.40;;;10.50;99.90;;;10.48;100.00;97219.59;5024204;27;129236;-70
2022/09/19 05:43:17;;;;;;;5.75;3.25;;;10.50;99.90;;;10.48;100.00;97211.44;5039369;27;120487;-70
2022/09/19 05:45:46;;;;;;;5.22;3.53;;;10.50;99.90;;;10.59;100.00;97220.50;5041565;27;119090;-69
2022/09/19 05:48:16;;;;;;;4.38;3.08;;;10.50;99.90;;;10.57;100.00;97217.38;5032313;27;130275;-79
2022/09/19 05:50:45;;;;;;;6.60;3.42;;;10.50;99.90;;;10.53;100.00;97221.97;5047193;27;131289;-70
2022/09/19 05:56:12;;;;;;;6.35;3.47;;;10.50;99.90;;;10.50;100.00;97226.22;5041234;27;118614;-70
2022/09/19 05:58:53;;;;;;;5.60;3.63;;;10.50;99.90;;;10.45;100.00;97231.94;5054767;27;129977;-75
2022/09/19 06:01:21;;;;;;;5.53;3.42;;;10.40;99.90;;;10.46;100.00;97235.44;5048732;27;129778;-69
2022/09/19 06:03:50;;;;;;;6.93;3.20;;;10.50;99.90;;;10.45;100.00;97252.84;5040422;27;119750;-71
2022/09/19 06:06:20;;;;;;;6.63;3.22;;;10.50;99.90;;;10.46;100.00;97238.16;5059889;27;119532;-70
2022/09/19 06:08:57;;;;;;;5.80;3.20;;;10.40;99.90;;;10.66;100.00;97236.88;5057970;27;130804;-70
2022/09/19 06:11:27;;;;;;;8.77;3.38;;;10.40;99.90;;;10.64;100.00;97239.16;5061073;27;129086;-69
2022/09/19 06:14:17;;;;;;;5.07;3.20;;;10.40;99.90;;;10.57;100.00;97244.50;5056992;27;122079;-70
2022/09/19 06:16:48;;;;;;;6.40;3.22;;;10.40;99.90;;;10.55;100.00;97253.00;5032691;27;122115;-69
2022/09/19 06:19:22;;;;;;;4.97;3.40;;;10.40;99.90;;;10.51;100.00;97263.00;5038576;27;130100;-71
2022/09/19 06:21:58;;;;;;;5.57;3.20;;;10.50;99.90;;;10.49;100.00;97261.84;5028111;27;129097;-74
2022/09/19 06:24:27;;;;;;;5.07;2.80;;;10.50;99.90;;;10.52;100.00;97269.25;5035465;27;119500;-70
2022/09/19 06:26:57;;;;;;;4.95;2.70;;;10.50;99.90;;;10.53;100.00;97270.78;5047874;27;119057;-70
2022/09/19 06:29:29;;;;;;;4.75;2.85;;;10.60;99.90;;;10.53;100.00;97260.75;5060882;27;129827;-70
2022/09/19 06:32:17;;;;;;;5.28;2.88;;;10.60;99.90;;;10.66;100.00;97296.56;5062765;27;129484;-75
2022/09/19 06:34:47;;;;;;;4.65;2.70;;;10.60;99.90;;;10.62;100.00;97279.44;5064690;27;119488;-72
2022/09/19 06:37:16;;;;;;;4.45;2.47;;;10.70;99.90;;;10.74;100.00;97290.09;5061367;27;120034;-72
2022/09/19 06:39:45;;;;;;;5.10;2.88;;;10.80;99.90;;;10.93;100.00;97282.97;5043204;27;129887;-71
2022/09/19 06:42:25;;;;;;;6.53;2.70;;;10.80;99.90;;;10.99;100.00;97286.94;5047375;27;129384;-72
2022/09/19 06:45:31;;;;;;;5.40;3.03;;;10.80;99.90;;;11.08;100.00;97289.34;5002043;28;120065;-70
2022/09/19 06:48:09;;;;;;;4.40;2.47;;;10.90;99.90;;;11.11;100.00;97305.69;5056110;27;119532;-73
2022/09/19 06:51:04;;;;;;;3.93;2.30;;;10.90;99.90;;;11.05;100.00;97300.97;5060846;27;130222;-71
2022/09/19 06:53:32;;;;;;;5.50;2.50;;;10.90;99.90;;;11.04;100.00;97316.47;5043848;27;129740;-74
2022/09/19 06:56:05;;;;;;;4.57;2.35;;;10.80;99.90;;;11.03;100.00;97303.25;5061260;27;119628;-71
2022/09/19 06:58:34;;;;;;;4.05;2.50;;;10.90;99.90;;;11.09;100.00;97315.34;5044363;27;119075;-72
2022/09/19 07:01:04;;;;;;;3.03;2.20;;;10.90;99.90;;;11.17;100.00;97322.44;5046752;27;129370;-73
2022/09/19 07:03:36;;;;;;;3.85;2.10;;;11.00;99.90;;;11.13;100.00;97316.97;5060554;27;129822;-72
2022/09/19 07:06:06;;;;;;;6.03;2.10;;;11.00;99.90;;;11.15;100.00;97328.22;5062979;27;122287;-71
2022/09/19 07:08:45;;;;;;;4.22;2.33;;;11.00;99.90;;;11.15;100.00;97333.66;5060976;27;122366;-71
2022/09/19 07:11:13;;;;;;;6.60;2.88;;;11.00;99.90;;;11.29;100.00;97326.84;5060336;27;130776;-73
2022/09/19 07:13:50;;;;;;;4.05;2.20;;;11.10;99.90;;;11.28;100.00;97342.38;5029737;27;128256;-72
2022/09/19 07:16:21;;;;;;;4.18;2.42;;;11.10;99.90;;;11.37;100.00;97344.03;5063866;27;120017;-71
2022/09/19 07:18:50;;;;;;;5.10;2.45;;;11.00;99.90;;;11.43;100.00;97337.88;5029844;27;118173;-70
2022/09/19 07:21:35;;;;;;;3.33;2.05;;;11.10;99.90;;;11.58;100.00;97359.81;5060259;27;130362;-72
2022/09/19 07:24:07;;;;;;;4.03;2.33;;;11.20;99.90;;;11.73;100.00;97358.78;5047016;27;129117;-75
2022/09/19 07:26:54;;;;;;;3.85;2.40;;;11.30;99.90;;;12.12;100.00;97352.25;5061625;27;119597;-71
2022/09/19 07:29:24;;;;;;;3.90;2.40;;;11.50;99.90;;;12.19;100.00;97355.03;5064022;27;119705;-71
2022/09/19 07:31:54;;;;;;;6.97;2.20;;;11.40;99.90;;;12.51;100.00;97349.88;5041638;27;129680;-71
2022/09/19 07:34:23;;;;;;;5.80;2.70;;;11.60;99.90;;;12.36;100.00;97369.97;5046290;27;129309;-71
2022/09/19 07:36:54;;;;;;;4.22;2.40;;;11.50;99.90;;;12.21;100.00;97374.47;5063502;27;118806;-70
2022/09/19 07:39:23;;;;;;;4.72;2.30;;;11.40;99.90;;;12.16;100.00;97374.81;5059686;27;120482;-72
2022/09/19 07:42:05;;;;;;;4.20;2.00;;;11.40;99.90;;;12.26;100.00;97365.97;5046263;27;129499;-70
2022/09/19 07:44:55;;;;;;;4.82;2.17;;;11.40;99.90;;;12.38;100.00;97389.41;5061051;27;130007;-74
2022/09/19 07:47:43;;;;;;;4.05;2.08;;;11.50;99.90;;;12.36;100.00;97402.59;5029530;27;119371;-74
2022/09/19 07:50:19;;;;;;;5.43;2.30;;;11.40;99.90;;;12.29;100.00;97391.63;5043675;27;119246;-71
2022/09/19 07:53:06;;;;;;;4.60;2.15;;;11.50;99.90;;;12.14;100.00;97386.06;5063090;27;129745;-70
2022/09/19 07:55:36;;;;;;;4.40;2.13;;;11.30;99.90;;;12.14;100.00;97398.88;5042694;27;129506;-76
2022/09/19 07:58:06;;;;;;;4.65;2.22;;;11.40;99.90;;;11.95;100.00;97399.84;5060015;27;122301;-74
2022/09/19 08:00:45;;;;;;;3.35;1.83;;;11.30;99.90;;;11.97;100.00;97401.03;5049962;27;121623;-71
2022/09/19 08:03:23;;;;;;;6.15;2.22;;;11.40;99.90;;;12.02;100.00;97408.06;5042658;27;129540;-76
2022/09/19 08:05:53;;;;;;;3.95;2.25;;;11.40;99.90;;;12.16;100.00;97412.88;5025738;27;129155;-73
2022/09/19 08:08:23;;;;;;;5.35;2.55;;;11.50;99.90;;;12.10;100.00;97420.59;5008925;27;119448;-72
2022/09/19 08:10:53;;;;;;;4.40;2.35;;;11.40;99.90;;;12.22;100.00;97430.44;5022539;27;119761;-73
2022/09/19 08:13:22;;;;;;;4.22;2.30;;;11.40;99.90;;;12.15;100.00;97431.13;5008567;27;129753;-73
2022/09/19 08:15:50;;;;;;;3.33;1.92;;;11.40;99.90;;;12.08;100.00;97420.19;5040175;27;128910;-75
2022/09/19 08:18:23;;;;;;;5.28;2.15;;;11.40;99.90;;;12.33;100.00;97425.88;5022640;27;119830;-75
2022/09/19 08:20:54;;;;;;;3.55;2.00;;;11.60;99.90;;;12.47;100.00;97430.69;5022284;27;121652;-71
2022/09/19 08:23:23;;;;;;;4.82;2.10;;;11.60;99.90;;;12.42;100.00;97433.75;5024132;27;129737;-73
2022/09/19 08:25:55;;;;;;;4.30;2.30;;;11.60;99.90;;;12.35;100.00;97439.09;5022345;27;130279;-71
2022/09/19 08:28:25;;;;;;;5.47;2.30;;;11.60;99.90;;;12.34;100.00;97440.25;5022697;27;119268;-72
2022/09/19 08:31:00;;;;;;;5.13;2.17;;;11.50;99.90;;;12.23;100.00;97449.09;5021692;27;120293;-73
2022/09/19 08:33:32;;;;;;;3.83;2.28;;;11.40;99.90;;;12.39;100.00;97439.94;5024664;27;130078;-71
2022/09/19 08:36:01;;;;;;;4.20;2.50;;;11.50;99.90;;;12.53;100.00;97450.94;5024978;27;128291;-72
2022/09/19 08:38:34;;;;;;;5.47;2.42;;;11.60;99.90;;;12.51;100.00;97453.28;5022230;27;119909;-77
2022/09/19 08:41:25;;;;;;;4.15;2.20;;;11.60;99.90;;;12.63;100.00;97443.25;5042394;27;119212;-74
2022/09/19 08:44:00;;;;;;;7.78;5.25;;;11.80;99.90;;;12.74;100.00;97455.78;5037910;27;130951;-74
2022/09/19 08:46:38;;;;;;;5.53;3.47;;;11.80;99.90;;;12.63;100.00;97454.16;5025009;27;129268;-75
2022/09/19 08:49:13;;;;;;;10.80;7.50;;;11.70;99.90;;;12.82;100.00;97461.31;5037561;27;122607;-74
2022/09/19 08:51:55;;;;;;;8.23;4.70;;;11.80;99.90;;;12.97;100.00;97462.22;5041948;27;121409;-72
2022/09/19 08:54:30;;;;;;;13.35;8.70;;;11.90;99.90;;;13.11;100.00;97468.53;5021535;27;130244;-72
2022/09/19 08:57:01;;;;;;;10.98;7.32;;;12.00;99.90;;;13.32;98.85;97472.56;5021287;27;129971;-71
2022/09/19 08:59:35;;;;;;;6.72;3.88;;;12.20;99.90;;;13.11;98.09;97489.56;5042382;27;119630;-69
2022/09/19 09:02:20;;;;;;;8.77;5.80;;;12.00;99.90;;;13.35;98.19;97477.28;5043444;27;119462;-74
2022/09/19 09:05:14;;;;;;;5.18;2.70;;;12.20;99.90;;;13.33;96.52;97473.38;5063073;27;105126;-70
2022/09/19 09:07:56;;;;;;;11.10;8.40;;;12.20;95.40;;;13.56;96.57;97484.06;5041985;27;130167;-75
2022/09/19 09:10:55;;;;;;;3.65;2.35;;;12.20;99.90;;;13.49;94.72;97482.06;5028010;27;118977;-72
2022/09/19 09:13:40;;;;;;;6.25;3.25;;;12.20;93.30;;;13.50;94.34;97483.63;5054405;27;119972;-74
2022/09/19 09:16:21;;;;;;;6.80;3.50;;;12.10;99.30;;;14.04;92.10;97489.38;5056923;27;129857;-74
2022/09/19 09:19:26;;;;;;;4.30;2.60;;;12.60;87.30;;;14.04;90.17;97500.28;5053360;27;130130;-71
2022/09/19 09:22:06;;;;;;;8.05;3.17;;;12.40;83.60;;;14.22;89.67;97505.78;5024877;27;119419;-69
2022/09/19 09:24:54;;;;;;;4.22;2.40;;;12.60;68.50;;;14.41;89.08;97512.09;5029569;27;121287;-74
2022/09/19 09:27:37;;;;;;;4.90;3.17;;;12.90;60.60;;;14.65;87.08;97505.94;5041796;27;130880;-74
2022/09/19 09:30:17;;;;;;;7.25;3.20;;;13.00;52.80;;;15.02;85.11;97523.94;5044502;27;132319;-72
2022/09/19 09:33:06;;;;;;;5.22;3.42;;;13.20;40.10;;;14.90;83.99;97527.06;5044846;27;119287;-72
2022/09/19 09:35:42;;;;;;;7.80;3.80;;;13.00;36.40;;;14.52;87.74;97529.28;5028261;27;119943;-71
2022/09/19 09:38:27;;;;;;;6.83;3.13;;;13.00;52.40;;;14.96;83.89;97528.22;5063831;27;129879;-72
2022/09/19 09:44:16;;;;;;;5.47;3.03;;;13.00;25.20;;;15.15;82.89;97534.50;5025845;27;122050;-72
2022/09/19 09:47:01;;;;;;;4.55;2.10;;;13.30;29.30;;;15.33;81.92;97550.88;5038082;27;121953;-74
2022/09/19 09:49:35;;;;;;;5.80;3.47;;;13.60;10.20;;;15.24;80.60;97540.34;5044828;27;128395;-72
2022/09/19 09:52:23;;;;;;;5.43;2.42;;;13.40;7.30;;;15.17;80.20;97545.81;5041484;27;130879;-75
2022/09/19 09:58:13;;;;;;;4.97;2.60;;;13.30;12.00;;;15.66;78.86;97554.38;5044906;27;119313;-75
2022/09/19 10:03:49;;;;;;;5.28;2.00;;;13.60;1.00;;;15.56;79.26;97555.94;5045472;27;130124;-74
2022/09/19 10:06:52;;;;;;;8.50;4.13;;;13.70;1.00;;;15.56;78.96;97564.16;5054379;27;119965;-73
2022/09/19 10:09:31;;;;;;;3.42;2.08;;;13.80;1.00;;;15.54;78.65;97569.25;5031377;27;119233;-78
2022/09/19 10:12:14;;;;;;;3.65;2.03;;;13.60;1.00;;;15.53;77.82;97567.66;5061869;27;129877;-77
2022/09/19 10:14:46;;;;;;;3.05;1.90;;;13.70;1.00;;;15.22;79.55;97578.19;5044649;27;130049;-75
2022/09/19 10:17:44;;;;;;;5.15;2.70;;;13.50;1.00;;;15.26;79.61;97570.78;5066145;27;118804;-73
2022/09/19 10:20:22;;;;;;;4.85;2.47;;;14.10;1.00;;;15.27;79.38;97567.66;5045075;27;119480;-73
2022/09/19 10:22:51;;;;;;;3.25;1.70;;;13.70;1.00;;;15.25;78.21;97591.09;5044701;27;129940;-74
2022/09/19 10:25:26;;;;;;;5.57;1.90;;;13.70;1.00;;;15.20;78.62;97589.50;5048077;27;129833;-70
2022/09/19 10:27:57;;;;;;;4.60;2.38;;;13.50;1.00;;;15.42;78.71;97600.47;5045017;27;119543;-72
2022/09/19 10:30:50;;;;;;;7.55;1.73;;;13.80;1.00;;;15.59;75.83;97599.69;5048147;27;119366;-72
2022/09/19 10:33:42;;;;;;;3.55;1.80;;;14.10;1.00;;;15.74;75.48;97600.47;5044389;27;129970;-76
2022/09/19 10:36:22;;;;;;;4.75;1.58;;;14.10;1.00;;;15.89;75.34;97606.72;5047767;27;129375;-71
2022/09/19 10:38:57;;;;;;;6.43;2.00;;;14.20;1.00;;;15.81;76.22;97605.94;5043305;27;122697;-74
2022/09/19 10:41:28;;;;;;;5.07;2.20;;;14.10;1.00;;;16.25;76.68;97605.88;5044316;27;121903;-75
2022/09/19 10:44:02;;;;;;;4.20;2.05;;;14.50;1.00;;;16.30;75.77;97613.69;5047394;27;129804;-72
2022/09/19 10:46:37;;;;;;;4.57;1.90;;;14.40;1.00;;;16.16;76.82;97609.81;5064212;27;128736;-69
2022/09/19 10:49:45;;;;;;;6.65;3.83;;;14.30;1.00;;;16.40;77.02;97618.34;5051772;27;119383;-74
2022/09/19 10:52:24;;;;;;;8.77;2.30;;;14.20;1.00;;;16.10;77.03;97616.84;5061245;27;119222;-74
2022/09/19 10:54:54;;;;;;;7.35;2.30;;;14.30;1.00;;;15.91;78.41;97626.28;5047138;27;130195;-76
2022/09/19 10:57:44;;;;;;;5.13;2.30;;;14.30;1.00;;;15.63;79.50;97633.28;5044671;27;129650;-75
2022/09/19 11:00:26;;;;;;;4.22;2.28;;;13.90;1.00;;;15.30;81.70;97634.41;5031259;27;119620;-78
2022/09/19 11:03:17;;;;;;;6.65;3.20;;;13.10;15.80;;;14.72;89.81;97647.94;5064072;27;120285;-79
2022/09/19 11:06:02;;;;;;;7.55;2.55;;;13.20;62.30;;;14.43;92.20;97652.44;5042526;27;131601;-71